Time;durP1;ratioP1;P1;durP2;ratioP2;P2;SDS_P1;SDS_P2;PMS_P1;PMS_P2;Temp;Humidity;BMP_temperature;BMP_pressure;BME280_temperature;BME280_humidity;BME280_pressure;Samples;Min_cycle;Max_cycle;Signal;HPM_P1;HPM_P2
2023/02/13 00:01:57;;;;;;;181.85;83.05;;;;;;;;;;4921877;29;20039;-89
2023/02/13 00:04:23;;;;;;;178.75;80.63;;;;;;;;;;4921819;29;20032;-90
2023/02/13 00:06:49;;;;;;;157.18;71.38;;;;;;;;;;4922010;29;20460;-90
2023/02/13 00:09:15;;;;;;;137.55;63.92;;;;;;;;;;4921662;29;20052;-91
2023/02/13 00:14:45;;;;;;;104.53;49.55;;;;;;;;;;4922073;29;20051;-91
2023/02/13 00:17:11;;;;;;;120.45;55.60;;;;;;;;;;4929245;29;20026;-92
2023/02/13 00:19:37;;;;;;;108.72;51.88;;;;;;;;;;4924062;29;20031;-90
2023/02/13 00:22:03;;;;;;;95.07;46.78;;;;;;;;;;4910421;29;20028;-90
2023/02/13 00:24:29;;;;;;;91.07;45.83;;;;;;;;;;4938574;29;20027;-91
2023/02/13 00:26:59;;;;;;;83.53;43.47;;;;;;;;;;4921312;29;20064;-90
2023/02/13 00:29:25;;;;;;;90.18;44.30;;;;;;;;;;4926988;29;20123;-90
2023/02/13 00:31:51;;;;;;;96.78;47.85;;;;;;;;;;4905487;29;20032;-90
2023/02/13 00:34:17;;;;;;;87.13;45.55;;;;;;;;;;4936596;29;20422;-89
2023/02/13 00:36:43;;;;;;;78.25;41.85;;;;;;;;;;4940749;29;20343;-90
2023/02/13 00:39:12;;;;;;;74.95;39.80;;;;;;;;;;4923404;29;20046;-90
2023/02/13 00:41:39;;;;;;;72.93;38.25;;;;;;;;;;4923614;29;20055;-90
2023/02/13 00:44:05;;;;;;;73.40;38.03;;;;;;;;;;4922784;29;20036;-90
2023/02/13 00:46:31;;;;;;;76.57;39.47;;;;;;;;;;4940312;29;20051;-91
2023/02/13 00:48:57;;;;;;;78.07;41.75;;;;;;;;;;4940733;29;20067;-91
2023/02/13 00:51:23;;;;;;;85.60;43.63;;;;;;;;;;4922734;29;20043;-92
2023/02/13 00:53:49;;;;;;;84.57;43.22;;;;;;;;;;4923206;29;20047;-92
2023/02/13 00:59:22;;;;;;;74.72;39.15;;;;;;;;;;4940488;29;20111;-94
2023/02/13 01:01:48;;;;;;;84.90;41.35;;;;;;;;;;4923385;29;20032;-91
2023/02/13 01:04:14;;;;;;;94.95;45.53;;;;;;;;;;4940050;29;20612;-92
2023/02/13 01:06:40;;;;;;;95.65;45.55;;;;;;;;;;4939978;29;20416;-91
2023/02/13 01:09:06;;;;;;;109.25;51.10;;;;;;;;;;4940368;29;20410;-92
2023/02/13 01:11:32;;;;;;;116.80;55.20;;;;;;;;;;4940392;29;20332;-91
2023/02/13 01:13:58;;;;;;;115.03;54.72;;;;;;;;;;4940363;29;20028;-92
2023/02/13 01:16:24;;;;;;;118.70;56.25;;;;;;;;;;4914626;29;20058;-92
2023/02/13 01:18:50;;;;;;;118.63;55.75;;;;;;;;;;4924571;29;20048;-92
2023/02/13 01:21:18;;;;;;;110.97;54.63;;;;;;;;;;4925054;29;20318;-91
2023/02/13 01:23:44;;;;;;;114.45;55.05;;;;;;;;;;4907813;29;20036;-91
2023/02/13 01:26:13;;;;;;;113.53;57.92;;;;;;;;;;4924680;29;20024;-91
2023/02/13 01:28:39;;;;;;;123.00;58.92;;;;;;;;;;4929876;29;20099;-91
2023/02/13 01:31:05;;;;;;;114.00;57.75;;;;;;;;;;4943320;29;20441;-91
2023/02/13 01:33:31;;;;;;;97.40;49.95;;;;;;;;;;4943962;29;20118;-91
2023/02/13 01:35:59;;;;;;;93.95;48.55;;;;;;;;;;4926521;29;20039;-92
2023/02/13 01:38:25;;;;;;;90.90;46.92;;;;;;;;;;4926886;29;20039;-91
2023/02/13 01:40:52;;;;;;;92.20;46.97;;;;;;;;;;4919161;29;20371;-91
2023/02/13 01:43:18;;;;;;;96.53;51.28;;;;;;;;;;4907647;29;20039;-90
2023/02/13 01:45:47;;;;;;;119.32;54.85;;;;;;;;;;4916869;29;20027;-90
2023/02/13 01:48:18;;;;;;;102.28;50.85;;;;;;;;;;4943313;29;20034;-91
2023/02/13 01:50:49;;;;;;;99.28;51.78;;;;;;;;;;4921553;29;20028;-90
2023/02/13 01:53:21;;;;;;;113.03;54.65;;;;;;;;;;4924484;29;20032;-89
2023/02/13 01:55:54;;;;;;;101.65;55.55;;;;;;;;;;4919977;29;20047;-90
2023/02/13 01:58:22;;;;;;;99.72;52.88;;;;;;;;;;4912426;29;20041;-90
2023/02/13 02:00:48;;;;;;;101.47;52.40;;;;;;;;;;4924493;29;20335;-90
2023/02/13 02:03:23;;;;;;;104.53;52.90;;;;;;;;;;4924052;29;20036;-90
2023/02/13 02:05:50;;;;;;;107.28;54.38;;;;;;;;;;4923906;29;20032;-91
2023/02/13 02:08:17;;;;;;;99.10;53.13;;;;;;;;;;4907350;29;20024;-90
2023/02/13 02:10:43;;;;;;;103.82;53.72;;;;;;;;;;4923908;29;20029;-90
2023/02/13 02:13:11;;;;;;;105.55;52.45;;;;;;;;;;4940636;29;20058;-90
2023/02/13 02:15:37;;;;;;;93.68;51.78;;;;;;;;;;4943208;29;20036;-91
2023/02/13 02:18:06;;;;;;;95.10;51.20;;;;;;;;;;4942956;29;20032;-89
2023/02/13 02:20:48;;;;;;;96.07;50.85;;;;;;;;;;4925339;29;20039;-92
2023/02/13 02:23:17;;;;;;;107.20;53.65;;;;;;;;;;4942736;29;20074;-91
2023/02/13 02:25:43;;;;;;;104.10;51.40;;;;;;;;;;4942838;29;20044;-91
2023/02/13 02:28:09;;;;;;;104.13;51.67;;;;;;;;;;4900642;29;20447;-90
2023/02/13 02:30:35;;;;;;;97.20;53.30;;;;;;;;;;4906567;29;20039;-91
2023/02/13 02:33:10;;;;;;;100.18;52.17;;;;;;;;;;4909875;29;20104;-89
2023/02/13 02:35:55;;;;;;;97.57;52.13;;;;;;;;;;4904834;29;20172;-90
2023/02/13 02:38:35;;;;;;;103.00;51.60;;;;;;;;;;4904477;29;20024;-90
2023/02/13 02:44:23;;;;;;;86.63;44.83;;;;;;;;;;4923391;29;20347;-90
2023/02/13 02:50:00;;;;;;;88.03;46.65;;;;;;;;;;4923662;29;20079;-90
2023/02/13 02:52:42;;;;;;;91.95;48.00;;;;;;;;;;4923433;29;20035;-93
2023/02/13 02:55:28;;;;;;;81.90;43.70;;;;;;;;;;4905991;29;20056;-93
2023/02/13 03:06:17;;;;;;;76.22;40.53;;;;;;;;;;4904367;29;20055;-91
2023/02/13 03:14:18;;;;;;;85.20;45.40;;;;;;;;;;4904268;29;20144;-91
2023/02/13 03:22:29;;;;;;;86.47;44.65;;;;;;;;;;4914787;29;20043;-92
2023/02/13 03:24:57;;;;;;;81.13;41.70;;;;;;;;;;4905843;29;20139;-91
2023/02/13 03:31:07;;;;;;;74.07;40.85;;;;;;;;;;4846465;29;20032;-90
2023/02/13 03:33:36;;;;;;;96.25;43.65;;;;;;;;;;4800951;29;20039;-90
2023/02/13 03:38:49;;;;;;;96.07;49.40;;;;;;;;;;4791412;29;20462;-89
2023/02/13 03:41:19;;;;;;;92.45;46.45;;;;;;;;;;4791785;30;20047;-90
2023/02/13 03:43:48;;;;;;;310.20;133.18;;;;;;;;;;4776593;30;20343;-90
2023/02/13 03:46:15;;;;;;;172.63;77.03;;;;;;;;;;4776711;30;20035;-90
2023/02/13 03:51:29;;;;;;;103.45;51.47;;;;;;;;;;4791863;30;20483;-89
2023/02/13 03:53:57;;;;;;;94.40;49.28;;;;;;;;;;4791422;30;20375;-91
2023/02/13 03:59:16;;;;;;;91.90;46.53;;;;;;;;;;4791724;30;20492;-92
2023/02/13 04:01:48;;;;;;;101.00;46.05;;;;;;;;;;4791229;30;20059;-90
2023/02/13 04:04:23;;;;;;;101.43;49.80;;;;;;;;;;4791136;30;20138;-90
2023/02/13 04:06:58;;;;;;;94.18;48.50;;;;;;;;;;4831742;29;20028;-90
2023/02/13 04:09:26;;;;;;;90.47;47.40;;;;;;;;;;4921919;29;20439;-89
2023/02/13 04:15:16;;;;;;;85.18;46.08;;;;;;;;;;4922000;29;20035;-90
2023/02/13 04:17:48;;;;;;;91.57;47.88;;;;;;;;;;4827290;29;20073;-91
2023/02/13 04:20:14;;;;;;;89.70;47.03;;;;;;;;;;4829995;29;20037;-90
2023/02/13 04:22:44;;;;;;;84.68;46.63;;;;;;;;;;4833330;29;20316;-90
2023/02/13 04:25:10;;;;;;;82.30;46.10;;;;;;;;;;4845416;29;20047;-90
2023/02/13 04:27:55;;;;;;;92.72;49.25;;;;;;;;;;4844539;29;20058;-91
2023/02/13 04:30:21;;;;;;;97.28;49.17;;;;;;;;;;4845247;29;20050;-90
2023/02/13 04:32:47;;;;;;;88.72;48.75;;;;;;;;;;4845193;29;20338;-90
2023/02/13 04:35:13;;;;;;;91.00;47.95;;;;;;;;;;4845435;29;20098;-90
2023/02/13 04:37:39;;;;;;;90.45;48.33;;;;;;;;;;4845390;29;20026;-90
2023/02/13 04:40:06;;;;;;;100.18;49.42;;;;;;;;;;4845245;29;20464;-89
2023/02/13 04:45:35;;;;;;;118.57;55.80;;;;;;;;;;4845294;29;20040;-90
2023/02/13 04:48:01;;;;;;;121.75;56.95;;;;;;;;;;4845227;29;20049;-92
2023/02/13 04:50:27;;;;;;;116.60;57.58;;;;;;;;;;4844534;29;20078;-91
2023/02/13 04:52:54;;;;;;;119.53;59.22;;;;;;;;;;4845130;29;20057;-90
2023/02/13 04:55:21;;;;;;;134.93;62.95;;;;;;;;;;4901061;29;20128;-92
2023/02/13 04:58:09;;;;;;;123.40;59.70;;;;;;;;;;4921511;29;20087;-90
2023/02/13 05:00:36;;;;;;;136.63;65.68;;;;;;;;;;4903866;29;20036;-93
2023/02/13 05:03:10;;;;;;;154.63;76.78;;;;;;;;;;4904407;29;20032;-93
2023/02/13 05:05:36;;;;;;;151.52;74.75;;;;;;;;;;4921332;29;20040;-93
2023/02/13 05:08:02;;;;;;;157.45;73.68;;;;;;;;;;4904656;29;20020;-90
2023/02/13 05:10:28;;;;;;;155.45;74.43;;;;;;;;;;4904446;29;20032;-92
2023/02/13 05:15:58;;;;;;;133.45;66.05;;;;;;;;;;4921246;29;20359;-90
2023/02/13 05:18:24;;;;;;;119.07;61.35;;;;;;;;;;4926484;29;20048;-89
2023/02/13 05:23:35;;;;;;;104.75;52.83;;;;;;;;;;4927399;29;20098;-90
2023/02/13 05:26:01;;;;;;;100.47;54.05;;;;;;;;;;4920009;29;20059;-92
2023/02/13 05:31:12;;;;;;;92.03;50.38;;;;;;;;;;4921148;29;20038;-91
2023/02/13 05:33:38;;;;;;;113.65;54.63;;;;;;;;;;4921125;29;20033;-92
2023/02/13 05:36:04;;;;;;;118.20;59.83;;;;;;;;;;4903949;29;20076;-91
2023/02/13 05:38:30;;;;;;;119.20;59.42;;;;;;;;;;4904083;29;20160;-90
2023/02/13 05:40:59;;;;;;;149.57;68.43;;;;;;;;;;4904147;29;20036;-91
2023/02/13 05:43:25;;;;;;;123.00;57.08;;;;;;;;;;4913599;29;20047;-91
2023/02/13 05:45:51;;;;;;;103.00;51.78;;;;;;;;;;4927102;29;20103;-90
2023/02/13 05:48:17;;;;;;;105.68;52.97;;;;;;;;;;4919618;29;20067;-90
2023/02/13 05:50:46;;;;;;;137.68;64.90;;;;;;;;;;4934545;29;20020;-90
2023/02/13 05:53:12;;;;;;;144.82;70.95;;;;;;;;;;4920700;29;20107;-90
2023/02/13 05:55:38;;;;;;;116.30;58.50;;;;;;;;;;4933815;29;20032;-90
2023/02/13 06:01:35;;;;;;;115.50;58.17;;;;;;;;;;4926324;29;20051;-90
2023/02/13 06:04:01;;;;;;;117.30;57.95;;;;;;;;;;4924200;29;20083;-90
2023/02/13 06:06:27;;;;;;;116.78;61.85;;;;;;;;;;4941002;29;20387;-90
2023/02/13 06:08:54;;;;;;;102.65;54.80;;;;;;;;;;4907443;29;20367;-93
2023/02/13 06:14:23;;;;;;;97.32;52.33;;;;;;;;;;4934194;29;20039;-91
2023/02/13 06:16:49;;;;;;;99.13;51.92;;;;;;;;;;4913470;29;20040;-92
2023/02/13 06:19:16;;;;;;;339.13;126.10;;;;;;;;;;4907094;29;20040;-94
2023/02/13 06:21:42;;;;;;;222.85;94.72;;;;;;;;;;4923099;29;20056;-94
2023/02/13 06:24:08;;;;;;;171.15;80.28;;;;;;;;;;4914850;29;20036;-91
2023/02/13 06:30:15;;;;;;;122.30;59.58;;;;;;;;;;4923219;29;20070;-91
2023/02/13 06:32:42;;;;;;;131.38;73.43;;;;;;;;;;4922818;29;20059;-91
2023/02/13 06:35:08;;;;;;;151.88;82.00;;;;;;;;;;4924042;29;20043;-90
2023/02/13 06:37:34;;;;;;;170.15;81.95;;;;;;;;;;4906687;29;20028;-91
2023/02/13 06:40:00;;;;;;;149.35;77.00;;;;;;;;;;4906684;29;20036;-91
2023/02/13 06:42:26;;;;;;;138.50;72.60;;;;;;;;;;4906602;29;20080;-93
2023/02/13 06:44:52;;;;;;;157.00;77.95;;;;;;;;;;4923514;29;20044;-91
2023/02/13 06:47:18;;;;;;;156.23;76.60;;;;;;;;;;4923587;29;20035;-92
2023/02/13 06:49:44;;;;;;;140.10;70.68;;;;;;;;;;4923258;29;20431;-91
2023/02/13 06:52:10;;;;;;;142.25;70.30;;;;;;;;;;4913244;29;20035;-91
2023/02/13 06:54:36;;;;;;;138.43;71.63;;;;;;;;;;4923057;29;20021;-90
2023/02/13 06:57:03;;;;;;;138.80;71.53;;;;;;;;;;4922260;29;20079;-91
2023/02/13 06:59:29;;;;;;;169.35;83.63;;;;;;;;;;4923308;29;20119;-91
2023/02/13 07:01:55;;;;;;;170.15;82.90;;;;;;;;;;4923101;29;20028;-89
2023/02/13 07:04:21;;;;;;;143.23;72.75;;;;;;;;;;4923017;29;20047;-89
2023/02/13 07:06:47;;;;;;;119.28;59.65;;;;;;;;;;4921871;29;20036;-88
2023/02/13 07:09:13;;;;;;;109.30;54.53;;;;;;;;;;4922067;29;20028;-90
2023/02/13 07:11:39;;;;;;;112.03;56.25;;;;;;;;;;4923042;29;20028;-91
2023/02/13 07:14:09;;;;;;;115.90;59.80;;;;;;;;;;4921892;29;20059;-91
2023/02/13 07:16:35;;;;;;;111.10;56.88;;;;;;;;;;4922980;29;20032;-91
2023/02/13 07:19:01;;;;;;;101.20;54.42;;;;;;;;;;4935667;29;20036;-91
2023/02/13 07:21:27;;;;;;;147.18;80.75;;;;;;;;;;4932559;29;20092;-91
2023/02/13 07:23:53;;;;;;;193.75;92.32;;;;;;;;;;4922737;29;20344;-90
2023/02/13 07:26:19;;;;;;;267.98;108.85;;;;;;;;;;4923471;29;20428;-91
2023/02/13 07:28:45;;;;;;;99.47;49.72;;;;;;;;;;4922764;29;20415;-90
2023/02/13 07:31:11;;;;;;;94.05;51.78;;;;;;;;;;4911515;29;20342;-91
2023/02/13 07:33:37;;;;;;;102.20;57.40;;;;;;;;;;4940947;29;20027;-91
2023/02/13 07:36:04;;;;;;;89.63;49.60;;;;;;;;;;4914388;29;20043;-92
2023/02/13 07:38:30;;;;;;;98.25;52.45;;;;;;;;;;4922722;29;20076;-91
2023/02/13 07:41:00;;;;;;;107.97;56.92;;;;;;;;;;4905768;29;20071;-90
2023/02/13 07:46:30;;;;;;;99.57;54.30;;;;;;;;;;4922580;29;20023;-90
2023/02/13 07:48:56;;;;;;;120.05;59.97;;;;;;;;;;4941415;29;20051;-92
2023/02/13 07:51:24;;;;;;;93.25;51.33;;;;;;;;;;4915271;29;20032;-90
2023/02/13 07:53:51;;;;;;;91.80;48.35;;;;;;;;;;4926555;29;20059;-91
2023/02/13 07:56:32;;;;;;;85.45;48.28;;;;;;;;;;4930256;29;20050;-88
2023/02/13 07:58:58;;;;;;;136.00;69.13;;;;;;;;;;4908100;29;20027;-89
2023/02/13 08:01:25;;;;;;;121.07;67.45;;;;;;;;;;4927538;29;20036;-88
2023/02/13 08:03:51;;;;;;;103.38;58.60;;;;;;;;;;4907682;29;20032;-89
2023/02/13 08:06:18;;;;;;;92.63;52.03;;;;;;;;;;4924065;29;20434;-89
2023/02/13 08:08:44;;;;;;;73.70;43.30;;;;;;;;;;4938476;29;20418;-89
2023/02/13 08:14:51;;;;;;;65.10;37.83;;;;;;;;;;4921881;29;20241;-88
2023/02/13 08:17:17;;;;;;;66.28;38.15;;;;;;;;;;4922108;29;20048;-94
2023/02/13 08:19:43;;;;;;;62.25;35.58;;;;;;;;;;4905152;29;20032;-85
2023/02/13 08:22:10;;;;;;;59.00;33.65;;;;;;;;;;4912425;29;20038;-88
2023/02/13 08:24:36;;;;;;;60.15;34.20;;;;;;;;;;4921452;29;20036;-91
2023/02/13 08:27:02;;;;;;;56.67;33.80;;;;;;;;;;4904563;29;20131;-89
2023/02/13 08:29:28;;;;;;;53.03;31.88;;;;;;;;;;4904702;29;20133;-89
2023/02/13 08:31:54;;;;;;;61.50;35.05;;;;;;;;;;4904375;29;20096;-90
2023/02/13 08:34:21;;;;;;;61.58;34.28;;;;;;;;;;4921987;29;20031;-90
2023/02/13 08:36:47;;;;;;;64.60;35.53;;;;;;;;;;4926832;29;20119;-91
2023/02/13 08:39:13;;;;;;;53.65;29.45;;;;;;;;;;4931509;29;20430;-89
2023/02/13 08:42:01;;;;;;;51.65;30.23;;;;;;;;;;4927357;29;20044;-88
2023/02/13 08:44:27;;;;;;;43.92;25.85;;;;;;;;;;4925837;29;20120;-89
2023/02/13 08:46:53;;;;;;;46.47;26.40;;;;;;;;;;4904912;29;20390;-88
2023/02/13 08:49:19;;;;;;;48.28;27.90;;;;;;;;;;4904611;29;20039;-88
2023/02/13 08:51:45;;;;;;;47.35;26.58;;;;;;;;;;4921278;29;20028;-89
2023/02/13 08:54:11;;;;;;;41.13;24.45;;;;;;;;;;4904220;29;20419;-92
2023/02/13 08:56:38;;;;;;;44.30;25.52;;;;;;;;;;4921663;29;20036;-90
2023/02/13 08:59:04;;;;;;;46.42;24.17;;;;;;;;;;4921593;29;20021;-90
2023/02/13 09:01:30;;;;;;;44.03;26.67;;;;;;;;;;4904565;29;20064;-89
2023/02/13 09:03:56;;;;;;;44.70;25.73;;;;;;;;;;4904139;29;20040;-90
2023/02/13 09:06:25;;;;;;;50.58;28.67;;;;;;;;;;4904598;29;20020;-90
2023/02/13 09:08:51;;;;;;;43.22;25.40;;;;;;;;;;4921293;29;20036;-90
2023/02/13 09:11:18;;;;;;;50.33;27.98;;;;;;;;;;4904420;29;20032;-89
2023/02/13 09:13:44;;;;;;;40.58;24.38;;;;;;;;;;4904450;29;20051;-90
2023/02/13 09:16:11;;;;;;;38.40;22.55;;;;;;;;;;4921313;29;20068;-89
2023/02/13 09:18:37;;;;;;;43.35;24.13;;;;;;;;;;4921175;29;20043;-89
2023/02/13 09:21:07;;;;;;;39.13;23.00;;;;;;;;;;4921024;29;20028;-89
2023/02/13 09:23:34;;;;;;;40.53;23.40;;;;;;;;;;4904300;29;20118;-89
2023/02/13 09:26:02;;;;;;;42.63;24.00;;;;;;;;;;4920928;29;20032;-90
2023/02/13 09:28:32;;;;;;;47.28;25.30;;;;;;;;;;4921032;29;20028;-89
2023/02/13 09:30:58;;;;;;;48.35;26.50;;;;;;;;;;4920810;29;20053;-89
2023/02/13 09:33:25;;;;;;;46.67;25.52;;;;;;;;;;4904006;29;20051;-89
2023/02/13 09:35:51;;;;;;;46.20;25.45;;;;;;;;;;4904309;29;20085;-89
2023/02/13 09:38:17;;;;;;;45.22;25.73;;;;;;;;;;4906992;29;20036;-89
2023/02/13 09:40:50;;;;;;;43.38;25.58;;;;;;;;;;4924654;29;20051;-88
2023/02/13 09:43:21;;;;;;;51.47;27.42;;;;;;;;;;4907708;29;20024;-89
2023/02/13 09:45:48;;;;;;;45.72;25.92;;;;;;;;;;4924195;29;20407;-90
2023/02/13 09:48:17;;;;;;;53.38;28.48;;;;;;;;;;4924316;29;20122;-89
2023/02/13 09:50:43;;;;;;;48.75;27.75;;;;;;;;;;4924470;29;20085;-89
2023/02/13 09:53:15;;;;;;;36.88;23.45;;;;;;;;;;4924629;29;20036;-89
2023/02/13 09:55:53;;;;;;;47.47;23.98;;;;;;;;;;4924473;29;20115;-89
2023/02/13 09:58:35;;;;;;;33.05;19.95;;;;;;;;;;4907062;29;20494;-90
2023/02/13 10:01:03;;;;;;;32.17;17.20;;;;;;;;;;4924111;29;20035;-89
2023/02/13 10:03:31;;;;;;;26.52;16.65;;;;;;;;;;4923952;29;20119;-89
2023/02/13 10:06:19;;;;;;;39.90;18.73;;;;;;;;;;4924250;29;20031;-89
2023/02/13 10:08:50;;;;;;;34.13;18.23;;;;;;;;;;4907365;29;20036;-89
2023/02/13 10:11:34;;;;;;;34.83;20.67;;;;;;;;;;4923995;29;20020;-89
2023/02/13 10:14:06;;;;;;;44.60;26.58;;;;;;;;;;4924039;29;20039;-90
2023/02/13 10:16:32;;;;;;;44.15;27.20;;;;;;;;;;4906917;29;20032;-91
2023/02/13 10:18:58;;;;;;;37.50;23.52;;;;;;;;;;4907280;29;20040;-89
2023/02/13 10:21:27;;;;;;;40.67;23.13;;;;;;;;;;4906824;29;20044;-89
2023/02/13 10:23:59;;;;;;;40.90;22.42;;;;;;;;;;4907104;29;20419;-89
2023/02/13 10:26:41;;;;;;;37.63;21.20;;;;;;;;;;4907177;29;20139;-89
2023/02/13 10:31:59;;;;;;;43.13;25.23;;;;;;;;;;4923674;29;20079;-89
2023/02/13 10:34:26;;;;;;;40.05;21.77;;;;;;;;;;4906706;29;20079;-89
2023/02/13 10:36:52;;;;;;;30.67;19.88;;;;;;;;;;4924044;29;20063;-89
2023/02/13 10:39:25;;;;;;;35.20;21.60;;;;;;;;;;4923490;29;20080;-89
2023/02/13 10:41:51;;;;;;;40.60;21.40;;;;;;;;;;4923582;29;20028;-88
2023/02/13 10:44:27;;;;;;;39.75;21.80;;;;;;;;;;4906567;29;20040;-89
2023/02/13 10:47:09;;;;;;;43.70;25.88;;;;;;;;;;4906792;29;20020;-89
2023/02/13 10:49:54;;;;;;;29.50;19.90;;;;;;;;;;4906210;29;20040;-89
2023/02/13 10:52:38;;;;;;;32.05;20.17;;;;;;;;;;4906554;29;20029;-89
2023/02/13 10:55:19;;;;;;;31.85;18.27;;;;;;;;;;4906211;29;20051;-89
2023/02/13 10:58:04;;;;;;;29.10;18.67;;;;;;;;;;4923220;29;20024;-89
2023/02/13 11:00:30;;;;;;;36.33;21.50;;;;;;;;;;4923095;29;20058;-89
2023/02/13 11:02:57;;;;;;;32.67;19.65;;;;;;;;;;4906073;29;20047;-89
2023/02/13 11:05:25;;;;;;;30.98;19.63;;;;;;;;;;4923222;29;20031;-89
2023/02/13 11:07:51;;;;;;;28.98;19.00;;;;;;;;;;4906402;29;20024;-89
2023/02/13 11:10:19;;;;;;;34.95;20.00;;;;;;;;;;4922638;29;20036;-89
2023/02/13 11:12:46;;;;;;;35.40;21.05;;;;;;;;;;4923142;29;20428;-89
2023/02/13 11:15:24;;;;;;;34.33;20.80;;;;;;;;;;4923003;29;20091;-89
2023/02/13 11:17:51;;;;;;;31.60;19.20;;;;;;;;;;4905431;29;20460;-89
2023/02/13 11:20:49;;;;;;;29.02;19.40;;;;;;;;;;4936987;29;20031;-88
2023/02/13 11:23:30;;;;;;;33.10;20.13;;;;;;;;;;4848366;29;20175;-89
2023/02/13 11:26:08;;;;;;;30.38;18.77;;;;;;;;;;4846568;29;20042;-92
2023/02/13 11:28:36;;;;;;;34.47;20.80;;;;;;;;;;4847262;29;20026;-88
2023/02/13 11:31:10;;;;;;;34.95;21.48;;;;;;;;;;4846413;29;20457;-94
2023/02/13 11:33:36;;;;;;;34.05;21.23;;;;;;;;;;4845731;29;20049;-89
2023/02/13 11:36:10;;;;;;;35.40;20.77;;;;;;;;;;4845879;29;20033;-89
2023/02/13 11:38:36;;;;;;;33.40;21.55;;;;;;;;;;4831155;29;20049;-88
2023/02/13 11:41:12;;;;;;;34.13;23.25;;;;;;;;;;4846378;29;20041;-89
2023/02/13 11:43:59;;;;;;;33.00;21.58;;;;;;;;;;4830992;29;20364;-89
2023/02/13 11:46:26;;;;;;;37.88;23.95;;;;;;;;;;4846140;29;20058;-88
2023/02/13 11:49:00;;;;;;;28.48;18.40;;;;;;;;;;4830719;29;20030;-89
2023/02/13 11:51:39;;;;;;;29.35;19.05;;;;;;;;;;4827843;29;20033;-89
2023/02/13 11:54:06;;;;;;;34.85;21.23;;;;;;;;;;4840090;29;20051;-88
2023/02/13 11:56:59;;;;;;;44.70;27.20;;;;;;;;;;4845874;29;20034;-87
2023/02/13 11:59:27;;;;;;;43.85;30.52;;;;;;;;;;4917155;29;20047;-88
2023/02/13 12:02:04;;;;;;;51.20;33.65;;;;;;;;;;4917013;29;20035;-84
2023/02/13 12:04:30;;;;;;;71.95;44.42;;;;;;;;;;4929781;29;20039;-83
2023/02/13 12:07:01;;;;;;;45.28;27.67;;;;;;;;;;4921135;29;20084;-84
2023/02/13 12:09:28;;;;;;;55.70;33.97;;;;;;;;;;4915291;29;20038;-83
2023/02/13 12:11:56;;;;;;;37.58;24.02;;;;;;;;;;4922666;29;20047;-83
2023/02/13 12:14:24;;;;;;;38.08;24.10;;;;;;;;;;4940527;29;20407;-83
2023/02/13 12:16:52;;;;;;;83.38;45.15;;;;;;;;;;4938880;29;20059;-82
2023/02/13 12:19:28;;;;;;;60.13;36.00;;;;;;;;;;4933772;29;20419;-83
2023/02/13 12:22:29;;;;;;;33.95;21.83;;;;;;;;;;4940526;29;20350;-83
2023/02/13 12:24:55;;;;;;;42.33;27.08;;;;;;;;;;4821103;29;20038;-83
2023/02/13 12:30:30;;;;;;;37.33;23.10;;;;;;;;;;4844159;29;20032;-83
2023/02/13 12:33:09;;;;;;;38.75;22.75;;;;;;;;;;4837498;29;20068;-83
2023/02/13 12:35:55;;;;;;;40.33;26.52;;;;;;;;;;4835505;29;20057;-83
2023/02/13 12:38:40;;;;;;;32.28;23.00;;;;;;;;;;4789697;30;20054;-83
2023/02/13 12:41:19;;;;;;;36.20;23.75;;;;;;;;;;4790335;30;20047;-83
2023/02/13 12:44:00;;;;;;;43.88;28.40;;;;;;;;;;4790165;30;20138;-82
2023/02/13 12:46:29;;;;;;;36.10;23.00;;;;;;;;;;4789438;30;20051;-83
2023/02/13 12:48:58;;;;;;;33.33;23.45;;;;;;;;;;4774670;30;20048;-83
2023/02/13 12:51:39;;;;;;;37.45;26.10;;;;;;;;;;4789650;30;20053;-83
2023/02/13 12:54:05;;;;;;;52.20;34.97;;;;;;;;;;4786553;30;20043;-83
2023/02/13 12:56:34;;;;;;;33.85;22.65;;;;;;;;;;4789119;29;20043;-83
2023/02/13 12:59:14;;;;;;;32.42;21.70;;;;;;;;;;4834925;29;20132;-83
2023/02/13 13:01:59;;;;;;;28.90;20.60;;;;;;;;;;4872424;29;20328;-83
2023/02/13 13:04:43;;;;;;;32.38;21.23;;;;;;;;;;4881460;29;20492;-83
2023/02/13 13:07:18;;;;;;;42.40;24.92;;;;;;;;;;4881721;29;20026;-83
2023/02/13 13:09:47;;;;;;;36.78;24.50;;;;;;;;;;4874195;29;20032;-82
2023/02/13 13:12:25;;;;;;;38.60;24.52;;;;;;;;;;4881892;29;20125;-83
2023/02/13 13:15:10;;;;;;;72.45;39.80;;;;;;;;;;4890335;29;20394;-83
2023/02/13 13:17:42;;;;;;;36.08;24.25;;;;;;;;;;4943902;29;20036;-82
2023/02/13 13:20:14;;;;;;;114.05;60.35;;;;;;;;;;4926827;29;20304;-82
2023/02/13 13:22:52;;;;;;;43.00;29.27;;;;;;;;;;4931522;29;20323;-83
2023/02/13 13:25:18;;;;;;;41.42;27.60;;;;;;;;;;4924659;29;20040;-81
2023/02/13 13:30:48;;;;;;;38.83;26.73;;;;;;;;;;4929704;29;20050;-82
2023/02/13 13:33:15;;;;;;;49.05;29.48;;;;;;;;;;4913434;29;20024;-82
2023/02/13 13:36:00;;;;;;;42.15;28.95;;;;;;;;;;4924133;29;20327;-83
2023/02/13 13:38:34;;;;;;;50.25;31.13;;;;;;;;;;4926371;29;20024;-82
2023/02/13 13:41:18;;;;;;;46.33;31.55;;;;;;;;;;4931983;29;20047;-82
2023/02/13 13:44:06;;;;;;;45.70;31.08;;;;;;;;;;4935859;29;20465;-83
2023/02/13 13:46:44;;;;;;;61.95;40.05;;;;;;;;;;4929961;29;20020;-83
2023/02/13 13:49:29;;;;;;;66.78;44.95;;;;;;;;;;4919767;29;20309;-83
2023/02/13 13:52:08;;;;;;;63.42;41.53;;;;;;;;;;4941392;29;20114;-83
2023/02/13 13:54:35;;;;;;;75.32;48.53;;;;;;;;;;4919197;29;20040;-83
2023/02/13 13:57:01;;;;;;;68.88;43.58;;;;;;;;;;4931180;29;20047;-83
2023/02/13 13:59:33;;;;;;;66.38;42.58;;;;;;;;;;4925343;29;20114;-82
2023/02/13 14:02:18;;;;;;;79.30;50.33;;;;;;;;;;4940810;29;20087;-83
2023/02/13 14:04:53;;;;;;;97.45;57.90;;;;;;;;;;4942876;29;20066;-83
2023/02/13 14:07:23;;;;;;;57.72;39.92;;;;;;;;;;4924589;29;20048;-83
2023/02/13 14:09:49;;;;;;;47.50;33.92;;;;;;;;;;4925919;29;20072;-83
2023/02/13 14:12:42;;;;;;;50.47;33.70;;;;;;;;;;4922683;29;20091;-83
2023/02/13 14:15:28;;;;;;;50.25;33.88;;;;;;;;;;4844645;29;20046;-83
2023/02/13 14:17:54;;;;;;;51.03;32.95;;;;;;;;;;4847353;29;20038;-83
2023/02/13 14:20:29;;;;;;;52.40;33.45;;;;;;;;;;4846898;29;20037;-83
2023/02/13 14:22:56;;;;;;;52.22;34.75;;;;;;;;;;4846738;29;20034;-83
2023/02/13 14:25:24;;;;;;;52.45;34.92;;;;;;;;;;4842645;29;20078;-83
2023/02/13 14:28:16;;;;;;;55.70;35.22;;;;;;;;;;4813342;29;20057;-83
2023/02/13 14:30:42;;;;;;;64.50;39.25;;;;;;;;;;4755811;30;20444;-83
2023/02/13 14:33:20;;;;;;;65.78;41.97;;;;;;;;;;4755350;30;20056;-83
2023/02/13 14:35:57;;;;;;;64.03;41.50;;;;;;;;;;4754695;30;20044;-83
2023/02/13 14:38:24;;;;;;;65.07;43.42;;;;;;;;;;4756644;30;20044;-83
2023/02/13 14:40:51;;;;;;;73.28;45.75;;;;;;;;;;4755508;30;20044;-83
2023/02/13 14:43:17;;;;;;;83.50;51.00;;;;;;;;;;4741036;30;20047;-83
2023/02/13 14:45:56;;;;;;;92.75;56.03;;;;;;;;;;4756591;30;20036;-83
2023/02/13 14:48:28;;;;;;;95.55;57.15;;;;;;;;;;4757233;30;20169;-82
2023/02/13 14:50:56;;;;;;;77.43;46.35;;;;;;;;;;4764331;29;20036;-83
2023/02/13 14:53:22;;;;;;;77.55;47.15;;;;;;;;;;4833786;29;20034;-83
2023/02/13 14:55:53;;;;;;;79.28;47.90;;;;;;;;;;4846680;29;20033;-83
2023/02/13 14:58:24;;;;;;;78.03;44.88;;;;;;;;;;4845648;29;20042;-84
2023/02/13 15:00:50;;;;;;;80.18;43.75;;;;;;;;;;4839904;29;20148;-83
2023/02/13 15:03:20;;;;;;;77.38;42.13;;;;;;;;;;4845910;29;20412;-83
2023/02/13 15:05:49;;;;;;;88.60;41.88;;;;;;;;;;4840491;29;20035;-85
2023/02/13 15:08:18;;;;;;;66.20;37.83;;;;;;;;;;4909411;29;20043;-82
2023/02/13 15:10:49;;;;;;;67.15;41.00;;;;;;;;;;4917339;29;20067;-83
2023/02/13 15:13:38;;;;;;;73.65;45.13;;;;;;;;;;4937862;29;20114;-83
2023/02/13 15:16:12;;;;;;;49.50;30.33;;;;;;;;;;4934392;29;20032;-83
2023/02/13 15:18:47;;;;;;;49.50;28.05;;;;;;;;;;4928235;29;20142;-82
2023/02/13 15:21:15;;;;;;;41.95;25.88;;;;;;;;;;4926140;29;20043;-83
2023/02/13 15:23:42;;;;;;;43.42;26.40;;;;;;;;;;4925172;29;20028;-82
2023/02/13 15:26:09;;;;;;;53.13;28.05;;;;;;;;;;4922869;29;20067;-86
2023/02/13 15:28:35;;;;;;;52.25;30.58;;;;;;;;;;4907594;29;20032;-82
2023/02/13 15:31:06;;;;;;;50.92;29.70;;;;;;;;;;4921025;29;20345;-81
2023/02/13 15:33:44;;;;;;;43.97;26.63;;;;;;;;;;4922076;29;20036;-82
2023/02/13 15:36:16;;;;;;;43.83;24.58;;;;;;;;;;4921538;29;20059;-83
2023/02/13 15:38:42;;;;;;;;;;;;;;;;;;4922446;29;20071;-83
2023/02/13 15:41:12;;;;;;;49.92;27.50;;;;;;;;;;4905265;29;19907;-83
2023/02/13 15:43:40;;;;;;;56.50;30.75;;;;;;;;;;4921759;29;20032;-83
2023/02/13 15:46:08;;;;;;;59.60;32.72;;;;;;;;;;4931098;29;20028;-83
2023/02/13 15:48:34;;;;;;;63.65;36.97;;;;;;;;;;4933616;29;20023;-82
2023/02/13 15:51:02;;;;;;;53.28;31.45;;;;;;;;;;4927906;29;20036;-83
2023/02/13 15:53:29;;;;;;;56.13;31.02;;;;;;;;;;4922480;29;20029;-83
2023/02/13 15:56:03;;;;;;;54.40;31.70;;;;;;;;;;4916660;29;20043;-83